createdAt,value
2022-10-07T00:04:54.459Z,5.00
2022-10-07T00:09:56.005Z,5.85
2022-10-07T00:14:57.758Z,5.70
2022-10-07T00:19:59.275Z,5.85
2022-10-07T00:25:00.799Z,4.78
2022-10-07T00:30:02.366Z,5.78
2022-10-07T00:35:04.213Z,8.10
2022-10-07T00:40:06.120Z,4.75
2022-10-07T00:45:16.689Z,4.45
2022-10-07T00:50:26.578Z,6.63
2022-10-07T00:55:30.068Z,5.63
2022-10-07T01:00:31.875Z,6.22
2022-10-07T01:05:33.454Z,5.20
2022-10-07T01:11:13.942Z,4.75
2022-10-07T01:16:24.663Z,6.10
2022-10-07T01:21:34.422Z,4.93
2022-10-07T01:26:45.333Z,7.63
2022-10-07T01:31:59.191Z,6.03
2022-10-07T01:37:04.652Z,4.63
2022-10-07T01:42:06.498Z,6.30
2022-10-07T01:47:08.175Z,4.47
2022-10-07T01:52:43.236Z,5.95
2022-10-07T01:58:11.422Z,5.68
2022-10-07T02:03:59.983Z,5.07
2022-10-07T02:09:11.619Z,7.47
2022-10-07T02:14:25.013Z,5.47
2022-10-07T02:19:32.336Z,10.05
2022-10-07T02:29:42.894Z,4.78
2022-10-07T02:34:48.936Z,6.03
2022-10-07T02:39:51.999Z,4.90
2022-10-07T02:45:06.286Z,4.82
2022-10-07T02:50:12.870Z,6.40
2022-10-07T02:55:22.394Z,6.38
2022-10-07T03:00:24.611Z,5.80
2022-10-07T03:05:28.499Z,4.40
2022-10-07T03:15:42.118Z,5.85
2022-10-07T03:20:45.463Z,5.40
2022-10-07T03:25:55.076Z,4.72
2022-10-07T03:31:06.980Z,6.38
2022-10-07T03:36:10.213Z,5.28
2022-10-07T03:41:15.309Z,5.78
2022-10-07T03:46:19.546Z,4.65
2022-10-07T03:51:22.028Z,6.07
2022-10-07T03:56:24.901Z,11.10
2022-10-07T04:01:26.730Z,8.15
2022-10-07T04:06:32.395Z,8.23
2022-10-07T04:11:40.549Z,10.10
2022-10-07T04:16:43.082Z,7.15
2022-10-07T04:21:47.150Z,11.63
2022-10-07T04:26:50.322Z,10.18
2022-10-07T04:31:52.191Z,8.65
2022-10-07T04:36:54.472Z,9.48
2022-10-07T04:41:56.955Z,15.55
2022-10-07T04:47:05.514Z,14.90
2022-10-07T04:52:07.949Z,11.82
2022-10-07T04:57:15.802Z,11.63
2022-10-07T05:02:19.493Z,8.80
2022-10-07T05:07:21.743Z,9.68
2022-10-07T05:12:25.961Z,8.75
2022-10-07T05:17:28.473Z,14.73
2022-10-07T05:22:31.448Z,14.35
2022-10-07T05:27:33.681Z,8.95
2022-10-07T05:32:35.303Z,9.40
2022-10-07T05:37:38.077Z,12.25
2022-10-07T05:42:40.058Z,13.02
2022-10-07T05:47:43.151Z,10.07
2022-10-07T05:52:45.504Z,10.85
2022-10-07T05:57:49.433Z,9.98
2022-10-07T06:02:51.965Z,13.68
2022-10-07T06:07:53.650Z,11.88
2022-10-07T06:13:07.469Z,17.75
2022-10-07T06:18:10.364Z,12.10
2022-10-07T06:23:13.250Z,15.05
2022-10-07T06:28:17.714Z,10.88
2022-10-07T06:33:20.317Z,9.40
2022-10-07T06:38:24.047Z,7.97
2022-10-07T06:43:27.024Z,9.27
2022-10-07T06:48:41.394Z,10.88
2022-10-07T06:53:44.302Z,8.43
2022-10-07T06:58:46.845Z,7.13
2022-10-07T07:03:51.529Z,9.88
2022-10-07T07:08:55.944Z,9.05
2022-10-07T07:13:58.522Z,6.18
2022-10-07T07:19:04.095Z,8.35
2022-10-07T07:24:07.677Z,6.68
2022-10-07T07:29:12.172Z,6.10
2022-10-07T07:34:19.524Z,5.97
2022-10-07T07:39:21.935Z,5.85
2022-10-07T07:44:43.657Z,6.78
2022-10-07T07:49:50.356Z,6.50
2022-10-07T07:54:59.165Z,5.40
2022-10-07T08:00:01.756Z,5.53
2022-10-07T08:05:04.915Z,5.07
2022-10-07T08:10:07.095Z,6.28
2022-10-07T08:15:10.827Z,6.53
2022-10-07T08:20:14.912Z,4.82
2022-10-07T08:25:16.843Z,6.35
2022-10-07T08:30:19.567Z,5.35
2022-10-07T08:35:22.521Z,5.38
2022-10-07T08:40:24.042Z,6.88
2022-10-07T08:45:31.937Z,5.35
2022-10-07T08:51:05.119Z,4.40
2022-10-07T08:56:13.997Z,4.50
2022-10-07T09:01:34.285Z,6.53
2022-10-07T09:06:45.520Z,3.97
2022-10-07T09:11:49.604Z,4.85
2022-10-07T09:16:55.032Z,3.58
2022-10-07T09:22:03.484Z,3.08
2022-10-07T09:27:13.625Z,5.80
2022-10-07T09:32:18.748Z,10.48
2022-10-07T09:37:26.183Z,5.47
2022-10-07T09:42:33.626Z,2.88
2022-10-07T09:47:40.295Z,4.55
2022-10-07T09:58:01.591Z,3.15
2022-10-07T10:03:07.759Z,4.80
2022-10-07T10:08:18.221Z,2.53
2022-10-07T10:13:36.599Z,3.20
2022-10-07T10:18:40.657Z,2.83
2022-10-07T10:23:53.770Z,2.95
2022-10-07T10:29:22.914Z,4.13
2022-10-07T10:34:54.143Z,2.45
2022-10-07T10:40:29.574Z,2.75
2022-10-07T10:45:49.103Z,2.60
2022-10-07T10:51:14.534Z,2.15
2022-10-07T10:56:42.474Z,4.18
2022-10-07T11:01:46.372Z,4.38
2022-10-07T11:06:58.548Z,3.50
2022-10-07T11:12:05.230Z,3.83
2022-10-07T11:17:10.167Z,3.17
2022-10-07T11:22:31.103Z,2.17
2022-10-07T11:27:35.041Z,3.70
2022-10-07T11:33:05.310Z,1.70
2022-10-07T11:38:15.778Z,2.70
2022-10-07T11:43:26.307Z,4.45
2022-10-07T11:48:40.981Z,4.32
2022-10-07T11:53:44.448Z,2.55
2022-10-07T11:58:48.776Z,2.20
2022-10-07T12:03:51.340Z,2.05
2022-10-07T12:08:53.809Z,4.07
2022-10-07T12:14:15.615Z,5.65
2022-10-07T12:19:23.466Z,2.20
2022-10-07T12:24:27.162Z,2.60
2022-10-07T12:29:44.580Z,3.45
2022-10-07T12:34:47.397Z,2.65
2022-10-07T12:39:49.033Z,1.83
2022-10-07T12:44:52.885Z,1.70
2022-10-07T12:50:07.327Z,3.08
2022-10-07T12:55:16.284Z,3.47
2022-10-07T13:00:24.515Z,2.83
2022-10-07T13:06:00.321Z,1.75
2022-10-07T13:11:42.189Z,3.38
2022-10-07T13:17:10.453Z,2.08
2022-10-07T13:27:26.835Z,1.85
2022-10-07T13:32:35.596Z,2.70
2022-10-07T13:37:38.298Z,3.25
2022-10-07T13:42:39.904Z,2.05
2022-10-07T13:47:45.134Z,3.60
2022-10-07T13:52:49.850Z,3.95
2022-10-07T13:57:52.499Z,3.85
2022-10-07T14:02:54.542Z,2.63
2022-10-07T14:08:10.999Z,2.25
2022-10-07T14:13:15.355Z,5.47
2022-10-07T14:18:17.771Z,2.58
2022-10-07T14:23:28.382Z,12.77
2022-10-07T14:28:35.370Z,2.97
2022-10-07T14:34:13.962Z,2.60
2022-10-07T14:39:29.684Z,3.50
2022-10-07T14:44:31.856Z,2.80
2022-10-07T14:49:33.400Z,3.60
2022-10-07T14:54:35.175Z,3.20
2022-10-07T14:59:37.896Z,7.22
2022-10-07T15:04:40.369Z,3.88
2022-10-07T15:09:43.814Z,3.20
2022-10-07T15:14:45.422Z,2.42
2022-10-07T15:19:47.089Z,2.85
2022-10-07T15:24:48.920Z,2.17
2022-10-07T15:29:53.770Z,1.92
2022-10-07T15:34:55.610Z,5.93
2022-10-07T15:39:58.733Z,2.90
2022-10-07T15:45:00.466Z,3.20
2022-10-07T15:50:02.272Z,5.25
2022-10-07T15:55:07.805Z,4.22
2022-10-07T16:00:10.752Z,4.78
2022-10-07T16:05:15.054Z,3.22
2022-10-07T16:10:16.726Z,2.22
2022-10-07T16:15:18.285Z,5.82
2022-10-07T16:20:20.597Z,3.25
2022-10-07T16:25:22.133Z,4.68
2022-10-07T16:30:42.148Z,5.07
2022-10-07T16:35:43.759Z,3.45
2022-10-07T16:40:54.671Z,3.65
2022-10-07T16:46:02.055Z,4.47
2022-10-07T16:51:04.154Z,4.40
2022-10-07T16:56:06.408Z,5.90
2022-10-07T17:01:13.695Z,4.50
2022-10-07T17:06:17.994Z,4.75
2022-10-07T17:11:31.255Z,3.45
2022-10-07T17:16:38.495Z,5.20
2022-10-07T17:21:41.990Z,5.20
2022-10-07T17:26:44.703Z,5.07
2022-10-07T17:31:50.487Z,4.32
2022-10-07T17:36:52.679Z,6.45
2022-10-07T17:41:54.374Z,5.20
2022-10-07T17:46:58.923Z,5.30
2022-10-07T17:52:00.552Z,6.57
2022-10-07T17:57:02.757Z,7.50
2022-10-07T18:02:05.343Z,5.93
2022-10-07T18:07:06.880Z,7.25
2022-10-07T18:12:27.079Z,7.60
2022-10-07T18:17:28.610Z,8.02
2022-10-07T18:22:30.138Z,9.10
2022-10-07T18:27:31.755Z,14.80
2022-10-07T18:32:33.645Z,9.20
2022-10-07T18:37:36.117Z,8.35
2022-10-07T18:42:38.455Z,7.70
2022-10-07T18:47:39.988Z,9.77
2022-10-07T18:52:41.630Z,14.40
2022-10-07T18:57:43.420Z,9.68
2022-10-07T19:02:46.130Z,8.90
2022-10-07T19:07:48.596Z,8.63
2022-10-07T19:13:09.324Z,9.27
2022-10-07T19:18:11.076Z,9.68
2022-10-07T19:23:12.732Z,9.32
2022-10-07T19:28:14.489Z,9.02
2022-10-07T19:33:16.750Z,9.50
2022-10-07T19:38:18.459Z,10.35
2022-10-07T19:43:20.012Z,8.80
2022-10-07T19:48:22.147Z,9.50
2022-10-07T19:53:23.684Z,9.45
2022-10-07T19:58:27.037Z,8.95
2022-10-07T20:03:28.657Z,10.07
2022-10-07T20:08:32.451Z,11.93
2022-10-07T20:13:35.820Z,13.70
2022-10-07T20:18:38.687Z,16.83
2022-10-07T20:23:45.753Z,17.70
2022-10-07T20:28:50.047Z,25.80
2022-10-07T20:33:54.543Z,17.75
2022-10-07T20:39:18.366Z,17.15
2022-10-07T20:44:22.977Z,16.90
2022-10-07T20:49:28.419Z,17.30
2022-10-07T20:54:31.270Z,24.40
2022-10-07T20:59:33.413Z,19.00
2022-10-07T21:04:34.918Z,16.67
2022-10-07T21:09:36.698Z,14.05
2022-10-07T21:14:38.414Z,12.95
2022-10-07T21:19:40.205Z,14.55
2022-10-07T21:24:41.846Z,14.55
2022-10-07T21:29:47.966Z,14.32
2022-10-07T21:34:51.274Z,13.30
2022-10-07T21:39:52.784Z,14.35
2022-10-07T21:44:54.330Z,19.52
2022-10-07T21:49:56.872Z,12.77
2022-10-07T21:54:58.424Z,13.65
2022-10-07T21:59:59.919Z,13.82
2022-10-07T22:05:01.497Z,15.88
2022-10-07T22:10:03.311Z,12.70
2022-10-07T22:15:05.317Z,12.82
2022-10-07T22:20:08.272Z,15.57
2022-10-07T22:25:09.796Z,14.65
2022-10-07T22:30:11.834Z,14.13
2022-10-07T22:35:30.141Z,17.88
2022-10-07T22:40:31.685Z,14.60
2022-10-07T22:45:33.829Z,15.27
2022-10-07T22:50:36.191Z,16.25
2022-10-07T22:55:37.683Z,18.00
2022-10-07T23:00:39.200Z,17.27
2022-10-07T23:05:40.770Z,16.13
2022-10-07T23:10:42.931Z,19.83
2022-10-07T23:15:46.685Z,16.35
2022-10-07T23:20:48.736Z,15.48
2022-10-07T23:25:51.812Z,24.38
2022-10-07T23:30:53.462Z,17.00
2022-10-07T23:35:57.099Z,17.55
2022-10-07T23:40:59.202Z,20.25
2022-10-07T23:46:01.687Z,15.77
2022-10-07T23:51:04.630Z,13.90
2022-10-07T23:56:06.921Z,17.13
